createdAt,value
2019-03-20T00:01:28.332Z,6.20
2019-03-20T00:03:55.776Z,13.23
2019-03-20T00:06:23.269Z,9.80
2019-03-20T00:08:50.766Z,7.28
2019-03-20T00:11:18.186Z,8.55
2019-03-20T00:13:45.615Z,8.47
2019-03-20T00:16:13.098Z,11.00
2019-03-20T00:18:40.699Z,7.37
2019-03-20T00:21:08.179Z,6.73
2019-03-20T00:23:35.691Z,10.05
2019-03-20T00:26:03.430Z,8.10
2019-03-20T00:28:31.079Z,8.02
2019-03-20T00:30:58.575Z,8.10
2019-03-20T00:33:26.034Z,7.33
2019-03-20T00:35:53.530Z,8.20
2019-03-20T00:38:22.499Z,8.43
2019-03-20T00:40:49.995Z,6.90
2019-03-20T00:43:17.473Z,8.93
2019-03-20T00:45:44.967Z,10.25
2019-03-20T00:48:12.443Z,7.45
2019-03-20T00:50:39.888Z,8.63
2019-03-20T00:53:07.359Z,9.70
2019-03-20T00:55:34.803Z,10.63
2019-03-20T00:58:02.255Z,11.73
2019-03-20T01:00:29.686Z,7.87
2019-03-20T01:02:57.158Z,7.50
2019-03-20T01:05:24.636Z,8.27
2019-03-20T01:07:52.111Z,8.77
2019-03-20T01:10:19.562Z,6.50
2019-03-20T01:12:49.472Z,8.47
2019-03-20T01:15:17.110Z,7.93
2019-03-20T01:17:44.567Z,12.10
2019-03-20T01:20:15.703Z,13.77
2019-03-20T01:22:43.214Z,6.60
2019-03-20T01:25:10.645Z,7.47
2019-03-20T01:27:38.117Z,10.32
2019-03-20T01:30:24.008Z,12.00
2019-03-20T01:32:51.483Z,9.30
2019-03-20T01:35:23.783Z,8.17
2019-03-20T01:37:46.434Z,7.18
2019-03-20T01:40:15.797Z,8.77
2019-03-20T01:42:43.395Z,9.88
2019-03-20T01:45:10.896Z,6.70
2019-03-20T01:47:38.294Z,6.93
2019-03-20T01:50:05.711Z,6.53
2019-03-20T01:52:33.202Z,10.70
2019-03-20T01:55:00.626Z,9.18
2019-03-20T01:57:28.081Z,5.80
2019-03-20T01:59:55.528Z,6.27
2019-03-20T02:02:23.019Z,13.53
2019-03-20T02:04:50.443Z,6.75
2019-03-20T02:07:17.925Z,9.35
2019-03-20T02:09:45.358Z,10.18
2019-03-20T02:12:12.862Z,9.00
2019-03-20T02:14:40.480Z,8.63
2019-03-20T02:17:07.944Z,10.77
2019-03-20T02:19:35.385Z,9.83
2019-03-20T02:22:03.308Z,7.00
2019-03-20T02:24:30.759Z,8.30
2019-03-20T02:26:58.259Z,11.85
2019-03-20T02:29:25.703Z,9.63
2019-03-20T02:31:53.172Z,10.13
2019-03-20T02:34:20.642Z,10.03
2019-03-20T02:36:48.107Z,6.73
2019-03-20T02:39:15.564Z,10.48
2019-03-20T02:41:43.058Z,8.43
2019-03-20T02:44:10.527Z,11.17
2019-03-20T02:46:37.987Z,7.50
2019-03-20T02:49:05.448Z,8.33
2019-03-20T02:51:33.777Z,9.87
2019-03-20T02:54:01.258Z,6.53
2019-03-20T02:56:28.701Z,6.70
2019-03-20T02:58:56.271Z,8.17
2019-03-20T03:01:23.726Z,12.27
2019-03-20T03:03:51.157Z,7.40
2019-03-20T03:06:18.599Z,12.27
2019-03-20T03:08:46.046Z,8.20
2019-03-20T03:11:13.500Z,9.63
2019-03-20T03:13:40.951Z,8.13
2019-03-20T03:16:08.458Z,9.63
2019-03-20T03:18:35.897Z,8.13
2019-03-20T03:21:04.283Z,8.40
2019-03-20T03:23:31.736Z,7.60
2019-03-20T03:25:59.226Z,11.37
2019-03-20T03:28:26.680Z,8.50
2019-03-20T03:30:54.144Z,7.53
2019-03-20T03:33:21.616Z,7.57
2019-03-20T03:35:49.275Z,7.90
2019-03-20T03:38:16.784Z,7.60
2019-03-20T03:40:44.230Z,8.73
2019-03-20T03:43:11.698Z,7.77
2019-03-20T03:45:39.154Z,9.87
2019-03-20T03:48:06.616Z,8.93
2019-03-20T03:50:34.787Z,11.20
2019-03-20T03:53:02.253Z,10.60
2019-03-20T03:55:29.738Z,9.43
2019-03-20T03:57:57.261Z,11.13
2019-03-20T04:00:25.235Z,8.30
2019-03-20T04:02:52.720Z,8.75
2019-03-20T04:05:20.197Z,8.37
2019-03-20T04:07:47.651Z,8.73
2019-03-20T04:10:15.094Z,7.30
2019-03-20T04:12:42.554Z,10.38
2019-03-20T04:15:10.034Z,9.57
2019-03-20T04:17:37.521Z,8.63
2019-03-20T04:20:06.271Z,8.35
2019-03-20T04:22:33.794Z,10.43
2019-03-20T04:25:01.245Z,7.80
2019-03-20T04:27:28.728Z,11.33
2019-03-20T04:29:56.201Z,11.17
2019-03-20T04:32:23.652Z,8.43
2019-03-20T04:34:52.743Z,7.47
2019-03-20T04:37:20.286Z,11.32
2019-03-20T04:39:47.754Z,9.20
2019-03-20T04:42:15.217Z,12.33
2019-03-20T04:44:42.679Z,7.30
2019-03-20T04:47:10.143Z,9.13
2019-03-20T04:49:37.594Z,8.00
2019-03-20T04:52:05.894Z,8.48
2019-03-20T04:54:33.339Z,7.40
2019-03-20T04:57:00.834Z,9.73
2019-03-20T04:59:28.263Z,8.67
2019-03-20T05:01:55.717Z,9.53
2019-03-20T05:04:23.198Z,10.90
2019-03-20T05:06:58.793Z,11.67
2019-03-20T05:09:18.174Z,10.40
2019-03-20T05:11:45.628Z,9.07
2019-03-20T05:14:13.110Z,13.48
2019-03-20T05:16:40.578Z,11.67
2019-03-20T05:19:08.086Z,9.37
2019-03-20T05:21:36.555Z,7.75
2019-03-20T05:24:04.007Z,9.40
2019-03-20T05:26:31.474Z,9.13
2019-03-20T05:28:58.889Z,8.73
2019-03-20T05:31:26.366Z,8.13
2019-03-20T05:33:53.840Z,6.68
2019-03-20T05:36:21.338Z,7.47
2019-03-20T05:38:48.789Z,9.10
2019-03-20T05:41:16.320Z,8.83
2019-03-20T05:43:43.739Z,8.23
2019-03-20T05:46:11.165Z,7.27
2019-03-20T05:48:38.625Z,8.23
2019-03-20T05:51:06.993Z,8.33
2019-03-20T05:53:34.470Z,7.37
2019-03-20T05:56:01.935Z,9.88
2019-03-20T05:58:29.401Z,9.27
2019-03-20T06:00:56.910Z,8.53
2019-03-20T06:03:24.344Z,7.63
2019-03-20T06:05:51.809Z,7.27
2019-03-20T06:08:19.264Z,7.00
2019-03-20T06:10:46.778Z,7.47
2019-03-20T06:13:14.269Z,6.70
2019-03-20T06:15:41.727Z,7.23
2019-03-20T06:18:09.194Z,10.37
2019-03-20T06:20:37.466Z,7.95
2019-03-20T06:23:04.931Z,6.90
2019-03-20T06:25:32.385Z,6.97
2019-03-20T06:27:59.872Z,10.10
2019-03-20T06:30:27.334Z,6.87
2019-03-20T06:32:54.798Z,5.90
2019-03-20T06:35:23.179Z,8.20
2019-03-20T06:37:50.699Z,6.30
2019-03-20T06:40:18.174Z,6.87
2019-03-20T06:42:45.660Z,6.70
2019-03-20T06:45:15.722Z,5.63
2019-03-20T06:47:43.193Z,5.22
2019-03-20T06:50:13.422Z,7.80
2019-03-20T06:52:40.860Z,6.80
2019-03-20T06:55:08.332Z,5.83
2019-03-20T06:57:35.750Z,5.50
2019-03-20T07:03:32.560Z,7.53
2019-03-20T07:06:16.292Z,5.07
2019-03-20T07:08:44.343Z,5.47
2019-03-20T07:11:11.871Z,4.50
2019-03-20T07:13:39.418Z,10.77
2019-03-20T07:16:06.897Z,9.43
2019-03-20T07:18:34.384Z,5.37
2019-03-20T07:21:01.833Z,6.30
2019-03-20T07:23:29.314Z,5.23
2019-03-20T07:25:56.754Z,8.03
2019-03-20T07:28:24.237Z,7.50
2019-03-20T07:30:51.717Z,4.95
2019-03-20T07:33:19.168Z,6.57
2019-03-20T07:35:46.623Z,8.97
2019-03-20T07:38:14.069Z,7.20
2019-03-20T07:40:41.581Z,6.07
2019-03-20T07:43:09.478Z,6.80
2019-03-20T07:45:36.551Z,5.40
2019-03-20T07:48:04.010Z,5.37
2019-03-20T07:50:31.466Z,6.13
2019-03-20T07:52:58.939Z,8.83
2019-03-20T07:55:26.380Z,5.23
2019-03-20T07:57:53.838Z,9.83
2019-03-20T08:00:21.291Z,7.45
2019-03-20T08:02:48.741Z,6.47
2019-03-20T08:05:16.198Z,5.87
2019-03-20T08:07:43.671Z,7.05
2019-03-20T08:10:12.637Z,16.50
2019-03-20T08:12:40.078Z,5.00
2019-03-20T08:15:23.135Z,5.40
2019-03-20T08:17:50.595Z,5.57
2019-03-20T08:20:21.892Z,6.78
2019-03-20T08:22:49.365Z,6.60
2019-03-20T08:25:16.802Z,8.05
2019-03-20T08:27:44.262Z,5.32
2019-03-20T08:30:13.876Z,7.10
2019-03-20T08:32:40.896Z,7.12
2019-03-20T08:35:08.337Z,7.40
2019-03-20T08:37:35.812Z,6.07
2019-03-20T08:40:03.273Z,10.83
2019-03-20T08:42:30.746Z,7.30
2019-03-20T08:44:59.130Z,7.85
2019-03-20T08:47:26.574Z,8.70
2019-03-20T08:49:54.031Z,9.93
2019-03-20T08:52:21.515Z,10.63
2019-03-20T08:54:48.967Z,5.37
2019-03-20T08:57:16.393Z,6.93
2019-03-20T08:59:43.836Z,7.13
2019-03-20T09:02:11.274Z,8.13
2019-03-20T09:04:38.710Z,6.70
2019-03-20T09:07:06.150Z,9.63
2019-03-20T09:09:33.622Z,6.40
2019-03-20T09:12:01.053Z,6.63
2019-03-20T09:14:28.517Z,5.83
2019-03-20T09:16:55.976Z,7.63
2019-03-20T09:19:24.260Z,10.10
2019-03-20T09:21:51.822Z,9.57
2019-03-20T09:24:19.287Z,7.37
2019-03-20T09:26:46.769Z,6.17
2019-03-20T09:29:18.610Z,5.40
2019-03-20T09:31:43.659Z,6.77
2019-03-20T09:34:11.228Z,8.33
2019-03-20T09:36:43.205Z,7.13
2019-03-20T09:39:06.160Z,7.60
2019-03-20T09:41:33.611Z,7.27
2019-03-20T09:44:01.078Z,7.00
2019-03-20T09:46:28.523Z,6.28
2019-03-20T09:48:56.040Z,6.28
2019-03-20T09:51:23.518Z,7.30
2019-03-20T09:53:50.980Z,6.07
2019-03-20T09:56:18.437Z,7.87
2019-03-20T09:58:45.902Z,6.47
2019-03-20T10:01:13.331Z,8.07
2019-03-20T10:03:41.821Z,8.88
2019-03-20T10:06:09.251Z,6.40
2019-03-20T10:08:36.757Z,6.50
2019-03-20T10:11:04.218Z,5.63
2019-03-20T10:13:31.711Z,6.37
2019-03-20T10:15:59.202Z,6.47
2019-03-20T10:18:27.458Z,7.23
2019-03-20T10:20:54.907Z,8.97
2019-03-20T10:23:22.341Z,6.13
2019-03-20T10:25:49.825Z,5.43
2019-03-20T10:28:17.330Z,5.10
2019-03-20T10:30:44.805Z,4.20
2019-03-20T10:33:12.319Z,4.60
2019-03-20T10:35:49.643Z,4.77
2019-03-20T10:38:07.286Z,4.30
2019-03-20T10:40:35.852Z,6.40
2019-03-20T10:43:03.414Z,3.20
2019-03-20T10:45:30.843Z,3.07
2019-03-20T10:47:58.302Z,2.85
2019-03-20T10:50:26.677Z,2.83
2019-03-20T10:52:54.113Z,2.03
2019-03-20T10:55:21.587Z,2.97
2019-03-20T10:57:49.022Z,3.13
2019-03-20T11:00:21.840Z,1.80
2019-03-20T11:02:49.307Z,1.73
2019-03-20T11:05:16.758Z,1.50
2019-03-20T11:07:44.223Z,1.20
2019-03-20T11:10:16.148Z,2.03
2019-03-20T11:12:43.615Z,1.40
2019-03-20T11:15:11.998Z,2.20
2019-03-20T11:17:39.500Z,1.83
2019-03-20T11:20:06.988Z,1.60
2019-03-20T11:22:34.492Z,1.63
2019-03-20T11:25:01.954Z,1.60
2019-03-20T11:27:29.460Z,2.30
2019-03-20T11:29:56.942Z,1.57
2019-03-20T11:32:24.374Z,2.00
2019-03-20T11:34:51.845Z,1.60
2019-03-20T11:37:19.294Z,1.63
2019-03-20T11:39:46.774Z,2.57
2019-03-20T11:42:14.224Z,2.53
2019-03-20T11:44:41.696Z,1.60
2019-03-20T11:47:09.137Z,1.90
2019-03-20T11:49:36.619Z,2.10
2019-03-20T11:52:06.206Z,3.80
2019-03-20T11:54:31.637Z,2.47
2019-03-20T11:56:59.101Z,2.30
2019-03-20T11:59:26.600Z,2.78
2019-03-20T12:01:54.061Z,2.63
2019-03-20T12:04:21.525Z,2.65
2019-03-20T12:06:48.971Z,2.50
2019-03-20T12:09:16.438Z,2.35
2019-03-20T12:11:46.091Z,3.00
2019-03-20T12:14:11.415Z,1.87
2019-03-20T12:16:38.932Z,2.00
2019-03-20T12:19:06.367Z,1.67
2019-03-20T12:21:33.823Z,2.03
2019-03-20T12:24:01.273Z,2.10
2019-03-20T12:26:28.720Z,2.00
2019-03-20T12:28:56.199Z,3.17
2019-03-20T12:31:23.744Z,2.50
2019-03-20T12:33:51.228Z,2.20
2019-03-20T12:36:18.787Z,3.17
2019-03-20T12:38:46.219Z,2.33
2019-03-20T12:41:13.688Z,2.60
2019-03-20T12:43:41.163Z,3.00
2019-03-20T12:46:08.608Z,2.72
2019-03-20T12:48:36.211Z,4.83
2019-03-20T12:51:03.690Z,3.40
2019-03-20T12:53:31.147Z,2.63
2019-03-20T12:55:58.609Z,2.80
2019-03-20T12:58:26.075Z,3.17
2019-03-20T13:00:54.618Z,3.67
2019-03-20T13:03:20.986Z,3.70
2019-03-20T13:05:48.450Z,2.83
2019-03-20T13:08:15.937Z,4.90
2019-03-20T13:10:43.408Z,3.00
2019-03-20T13:13:10.898Z,3.40
2019-03-20T13:15:38.331Z,3.40
2019-03-20T13:18:05.791Z,3.03
2019-03-20T13:20:33.230Z,3.78
2019-03-20T13:23:11.482Z,3.30
2019-03-20T13:25:38.946Z,4.37
2019-03-20T13:28:06.423Z,3.53
2019-03-20T13:30:38.524Z,4.97
2019-03-20T13:33:05.992Z,4.47
2019-03-20T13:35:33.476Z,3.80
2019-03-20T13:38:00.976Z,4.50
2019-03-20T13:40:28.428Z,5.07
2019-03-20T13:42:55.887Z,7.30
2019-03-20T13:45:23.345Z,3.83
2019-03-20T13:47:51.739Z,5.68
2019-03-20T13:50:19.217Z,3.67
2019-03-20T13:52:46.688Z,5.65
2019-03-20T13:55:14.136Z,3.70
2019-03-20T13:57:41.753Z,4.07
2019-03-20T14:00:19.615Z,4.93
2019-03-20T14:02:47.071Z,3.50
2019-03-20T14:05:14.511Z,5.30
2019-03-20T14:07:41.996Z,4.65
2019-03-20T14:10:10.168Z,4.37
2019-03-20T14:12:37.614Z,4.85
2019-03-20T14:15:05.091Z,6.22
2019-03-20T14:17:32.557Z,5.17
2019-03-20T14:20:00.038Z,5.18
2019-03-20T14:22:27.498Z,3.90
2019-03-20T14:24:56.688Z,3.67
2019-03-20T14:27:24.178Z,3.73
2019-03-20T14:29:52.380Z,3.80
2019-03-20T14:32:19.858Z,4.83
2019-03-20T14:34:47.324Z,3.37
2019-03-20T14:37:14.763Z,4.23
2019-03-20T14:39:42.219Z,3.50
2019-03-20T14:42:09.647Z,5.15
2019-03-20T14:44:37.122Z,3.60
2019-03-20T14:47:04.564Z,4.13
2019-03-20T14:49:32.047Z,5.73
2019-03-20T14:51:59.512Z,5.35
2019-03-20T14:54:26.991Z,3.78
2019-03-20T14:56:54.444Z,4.97
2019-03-20T14:59:21.888Z,6.83
2019-03-20T15:01:49.381Z,5.77
2019-03-20T15:04:16.815Z,2.80
2019-03-20T15:06:44.300Z,3.40
2019-03-20T15:09:11.754Z,2.60
2019-03-20T15:11:41.645Z,3.70
2019-03-20T15:14:09.241Z,3.47
2019-03-20T15:16:36.717Z,3.37
2019-03-20T15:19:04.197Z,3.30
2019-03-20T15:21:31.653Z,3.90
2019-03-20T15:23:59.098Z,3.50
2019-03-20T15:26:26.570Z,2.92
2019-03-20T15:28:54.049Z,6.37
2019-03-20T15:31:21.518Z,3.17
2019-03-20T15:33:48.990Z,2.70
2019-03-20T15:36:16.444Z,3.57
2019-03-20T15:38:43.943Z,4.13
2019-03-20T15:41:11.402Z,2.87
2019-03-20T15:43:38.863Z,4.00
2019-03-20T15:46:06.289Z,3.03
2019-03-20T15:48:33.733Z,3.87
2019-03-20T15:51:01.190Z,2.80
2019-03-20T15:53:28.654Z,2.67
2019-03-20T15:55:56.119Z,2.67
2019-03-20T15:58:24.336Z,5.47
2019-03-20T16:00:51.791Z,3.17
2019-03-20T16:03:22.447Z,3.12
2019-03-20T16:05:49.879Z,2.63
2019-03-20T16:08:17.373Z,3.03
2019-03-20T16:10:44.832Z,2.77
2019-03-20T16:13:12.287Z,2.62
2019-03-20T16:15:39.758Z,2.70
2019-03-20T16:18:07.245Z,3.20
2019-03-20T16:20:34.724Z,2.50
2019-03-20T16:23:02.172Z,6.40
2019-03-20T16:25:29.677Z,3.95
2019-03-20T16:27:57.272Z,3.27
2019-03-20T16:30:25.893Z,2.40
2019-03-20T16:32:53.351Z,2.50
2019-03-20T16:35:20.877Z,3.00
2019-03-20T16:37:48.351Z,2.87
2019-03-20T16:40:15.795Z,2.23
2019-03-20T16:42:43.245Z,2.60
2019-03-20T16:45:20.297Z,3.00
2019-03-20T16:47:47.726Z,2.23
2019-03-20T16:50:15.904Z,3.07
2019-03-20T16:52:43.361Z,2.20
2019-03-20T16:55:10.841Z,2.20
2019-03-20T16:57:38.291Z,2.40
2019-03-20T17:00:29.912Z,2.17
2019-03-20T17:02:57.382Z,2.87
2019-03-20T17:05:25.762Z,2.45
2019-03-20T17:07:53.285Z,1.80
2019-03-20T17:10:24.096Z,2.10
2019-03-20T17:12:51.714Z,3.12
2019-03-20T17:15:19.922Z,2.40
2019-03-20T17:17:47.367Z,2.20
2019-03-20T17:20:14.856Z,1.67
2019-03-20T17:22:42.290Z,3.70
2019-03-20T17:25:09.773Z,3.23
2019-03-20T17:27:37.229Z,2.30
2019-03-20T17:30:04.713Z,1.65
2019-03-20T17:32:32.400Z,3.20
2019-03-20T17:34:59.922Z,6.80
2019-03-20T17:37:27.387Z,1.80
2019-03-20T17:39:54.855Z,2.03
2019-03-20T17:42:22.920Z,1.93
2019-03-20T17:44:50.396Z,1.90
2019-03-20T17:47:17.876Z,1.73
2019-03-20T17:49:45.326Z,3.73
2019-03-20T17:52:12.817Z,2.83
2019-03-20T17:54:40.266Z,3.15
2019-03-20T17:57:07.720Z,2.83
2019-03-20T17:59:35.194Z,2.70
2019-03-20T18:02:02.641Z,2.43
2019-03-20T18:04:30.091Z,2.50
2019-03-20T18:06:57.595Z,7.30
2019-03-20T18:09:25.237Z,4.83
2019-03-20T18:11:52.835Z,3.03
2019-03-20T18:14:20.317Z,4.83
2019-03-20T18:16:47.772Z,3.30
2019-03-20T18:19:15.244Z,2.40
2019-03-20T18:21:42.735Z,5.30
2019-03-20T18:24:10.189Z,3.17
2019-03-20T18:26:37.702Z,2.80
2019-03-20T18:29:05.107Z,2.23
2019-03-20T18:31:32.568Z,2.77
2019-03-20T18:34:00.015Z,6.28
2019-03-20T18:36:27.501Z,2.53
2019-03-20T18:38:55.521Z,3.47
2019-03-20T18:41:23.000Z,2.67
2019-03-20T18:43:50.476Z,3.27
2019-03-20T18:46:17.980Z,3.80
2019-03-20T18:48:45.419Z,3.20
2019-03-20T18:51:12.884Z,5.73
2019-03-20T18:53:40.322Z,4.00
2019-03-20T18:56:07.802Z,5.40
2019-03-20T18:58:35.257Z,3.83
2019-03-20T19:01:02.708Z,3.60
2019-03-20T19:03:31.011Z,3.70
2019-03-20T19:06:02.929Z,3.00
2019-03-20T19:08:30.410Z,3.37
2019-03-20T19:10:58.477Z,3.03
2019-03-20T19:13:28.118Z,3.93
2019-03-20T19:15:55.740Z,4.80
2019-03-20T19:18:23.284Z,3.97
2019-03-20T19:20:50.752Z,5.23
2019-03-20T19:23:18.224Z,4.43
2019-03-20T19:25:45.668Z,4.10
2019-03-20T19:28:13.144Z,4.47
2019-03-20T19:30:40.751Z,4.77
2019-03-20T19:33:08.588Z,4.35
2019-03-20T19:35:36.027Z,4.00
2019-03-20T19:38:03.475Z,3.70
2019-03-20T19:40:31.055Z,4.37
2019-03-20T19:42:58.573Z,4.20
2019-03-20T19:45:26.039Z,5.70
2019-03-20T19:47:53.504Z,3.73
2019-03-20T19:50:21.783Z,3.70
2019-03-20T19:52:49.363Z,3.40
2019-03-20T19:55:16.839Z,3.80
2019-03-20T19:57:44.275Z,4.23
2019-03-20T20:00:15.327Z,4.17
2019-03-20T20:02:42.778Z,4.20
2019-03-20T20:05:15.667Z,8.10
2019-03-20T20:07:37.720Z,5.10
2019-03-20T20:10:08.139Z,4.87
2019-03-20T20:12:35.614Z,4.70
2019-03-20T20:15:03.259Z,4.27
2019-03-20T20:17:30.900Z,4.30
2019-03-20T20:19:59.426Z,4.72
2019-03-20T20:22:27.746Z,5.53
2019-03-20T20:24:55.181Z,4.77
2019-03-20T20:27:22.647Z,5.50
2019-03-20T20:29:50.071Z,6.10
2019-03-20T20:32:17.497Z,8.23
2019-03-20T20:34:45.397Z,6.63
2019-03-20T20:37:12.866Z,7.37
2019-03-20T20:39:40.305Z,5.87
2019-03-20T20:42:07.772Z,6.57
2019-03-20T20:44:36.031Z,6.17
2019-03-20T20:47:03.496Z,5.90
2019-03-20T20:49:32.249Z,4.73
2019-03-20T20:51:58.427Z,5.53
2019-03-20T20:54:25.912Z,5.23
2019-03-20T20:56:53.380Z,6.13
2019-03-20T20:59:20.868Z,7.30
2019-03-20T21:01:48.304Z,5.53
2019-03-20T21:04:16.016Z,6.47
2019-03-20T21:06:43.473Z,9.50
2019-03-20T21:09:10.987Z,11.77
2019-03-20T21:11:38.414Z,6.20
2019-03-20T21:14:05.862Z,6.73
2019-03-20T21:16:33.342Z,6.50
2019-03-20T21:19:26.751Z,8.60
2019-03-20T21:22:10.820Z,6.90
2019-03-20T21:24:38.994Z,10.90
2019-03-20T21:27:27.008Z,6.40
2019-03-20T21:30:19.374Z,7.65
2019-03-20T21:32:49.711Z,7.93
2019-03-20T21:35:28.984Z,7.15
2019-03-20T21:38:04.199Z,6.83
2019-03-20T21:40:32.429Z,7.80
2019-03-20T21:43:11.614Z,8.40
2019-03-20T21:45:41.750Z,8.50
2019-03-20T21:48:09.287Z,7.63
2019-03-20T21:50:48.625Z,10.70
2019-03-20T21:53:18.031Z,9.10
2019-03-20T21:55:57.393Z,9.43
2019-03-20T21:58:24.847Z,9.07
2019-03-20T22:04:03.085Z,10.73
2019-03-20T22:06:37.815Z,10.88
2019-03-20T22:09:05.263Z,10.80
2019-03-20T22:11:53.330Z,8.90
2019-03-20T22:14:20.782Z,8.87
2019-03-20T22:17:10.640Z,11.03
2019-03-20T22:19:42.708Z,10.60
2019-03-20T22:22:16.721Z,11.00
2019-03-20T22:25:05.833Z,11.30
2019-03-20T22:27:38.916Z,10.03
2019-03-20T22:30:06.358Z,12.07
2019-03-20T22:32:40.646Z,10.53
2019-03-20T22:35:23.276Z,14.73
2019-03-20T22:37:50.763Z,11.20
2019-03-20T22:40:30.551Z,11.18
2019-03-20T22:43:11.301Z,10.93
2019-03-20T22:45:48.862Z,12.47
2019-03-20T22:48:35.999Z,10.83
2019-03-20T22:51:23.154Z,11.53
2019-03-20T22:54:02.262Z,10.83
2019-03-20T22:56:35.189Z,12.07
2019-03-20T22:59:02.668Z,12.10
2019-03-20T23:01:30.119Z,11.60
2019-03-20T23:04:00.399Z,12.13
2019-03-20T23:06:27.835Z,14.47
2019-03-20T23:08:55.644Z,12.53
2019-03-20T23:11:23.139Z,11.50
2019-03-20T23:13:50.669Z,14.30
2019-03-20T23:16:18.123Z,13.73
2019-03-20T23:18:45.589Z,12.43
2019-03-20T23:21:13.026Z,10.90
2019-03-20T23:23:40.471Z,12.70
2019-03-20T23:26:07.938Z,11.48
2019-03-20T23:28:35.457Z,11.33
2019-03-20T23:31:03.055Z,11.00
2019-03-20T23:33:31.414Z,12.47
2019-03-20T23:35:59.131Z,14.13
2019-03-20T23:38:28.575Z,12.50
2019-03-20T23:40:54.252Z,10.73
2019-03-20T23:43:21.682Z,14.50
2019-03-20T23:45:49.154Z,12.73
2019-03-20T23:48:23.005Z,13.17
2019-03-20T23:50:51.209Z,12.88
2019-03-20T23:53:18.645Z,11.73
2019-03-20T23:55:46.098Z,11.90
2019-03-20T23:58:13.548Z,12.10
